Flight Track Log - Related Links

Times and Time Zones

All times are in EDT time to prevent confusion due to time zone crossing. See the SWA2166 flight status page for this flight to view local times or setup timezone preferences in your user account.

Time Position Orientation Groundspeed Altitude Reporting Facility
EDT Latitude Longitude Course Direction KTS MPH feet Rate Location/Type
Sat 10:51:36 AM 39.8500 -104.7833 308° West 205 236 7,400  Level Denver TRACON
Sat 10:52:36 AM 39.9000 -104.8667 308° West 273 314 9,400 2,194 Climbing Denver TRACON
Sat 10:53:09 AM 39.9156 -104.9128 294° West 277 319 10,800 2,779 Climbing Denver Center
Sat 10:54:11 AM 39.9508 -105.0225 293° West 327 376 13,800 2,806 Climbing Denver Center
Sat 10:55:13 AM 39.9642 -105.1478 278° West 349 402 16,600 2,855 Climbing Denver Center
Sat 10:56:15 AM 39.9811 -105.2925 279° West 376 433 19,700 2,855 Climbing Denver Center
Sat 10:57:17 AM 39.9825 -105.4336 271° West 392 451 22,500 2,439 Climbing Denver Center
Sat 10:58:18 AM 39.9769 -105.5783 267° West 396 456 24,700 1,902 Climbing Denver Center
Sat 10:59:20 AM 39.9708 -105.7289 267° West 414 476 26,400 1,694 Climbing Denver Center
Sat 11:00:22 AM 39.9706 -105.8822 270° West 416 479 28,200 1,790 Climbing Denver Center
Sat 11:01:24 AM 39.9794 -106.0431 274° West 437 503 30,100 2,081 Climbing Denver Center
Sat 11:02:26 AM 39.9900 -106.2281 274° West 435 501 32,500 1,403 Climbing Denver Center
Sat 11:03:28 AM 39.9978 -106.3861 274° West 433 498 33,000 242 Climbing Denver Center
Sat 11:04:30 AM 40.0194 -106.5475 280° West 439 505 33,000  Level Denver Center
Sat 11:05:32 AM 40.0442 -106.6933 283° West 433 498 33,000  Level Denver Center
Sat 11:06:34 AM 40.0742 -106.8631 283° West 431 496 33,000  Level Denver Center
Sat 11:07:36 AM 40.0992 -107.0058 283° West 423 487 33,000  Level Denver Center
Sat 11:08:38 AM 40.1283 -107.1736 283° West 425 489 33,000 194 Level Denver Center
Sat 11:09:40 AM 40.1539 -107.3189 283° West 427 491 33,400 1,016 Climbing Denver Center
Sat 11:10:42 AM 40.1792 -107.4636 283° West 428 493 35,100 1,790 Climbing Denver Center
Sat 11:11:44 AM 40.2072 -107.6311 282° West 423 487 37,100 1,415 Climbing Denver Center
Sat 11:12:45 AM 40.2300 -107.7686 282° West 409 471 38,000 439 Climbing Denver Center
Sat 11:13:47 AM 40.2561 -107.9300 282° West 407 468 38,000  Level Denver Center
Sat 11:14:49 AM 40.2792 -108.0681 282° West 407 468 38,000  Level Denver Center
Sat 11:15:51 AM 40.3056 -108.2294 282° West 407 468 38,000  Level Denver Center
Sat 11:16:53 AM 40.3283 -108.3672 282° West 405 466 38,000  Level Denver Center
Sat 11:17:55 AM 40.3531 -108.5269 282° West 403 464 38,000  Level Denver Center
Sat 11:18:57 AM 40.3756 -108.6631 282° West 400 460 38,000  Level Denver Center
Sat 11:19:59 AM 40.3994 -108.8222 281° West 400 460 38,000  Level Denver Center
Sat 11:20:35 AM 40.4139 -108.9125 282° West 397 457 38,000  Level Salt Lake Center
Sat 11:21:37 AM 40.4358 -109.0475 282° West 396 456 38,000  Level Salt Lake Center
Sat 11:22:39 AM 40.4564 -109.1847 281° West 399 459 38,000  Level Salt Lake Center
Sat 11:23:04 AM 40.4667 -109.2528 281° West 401 461 38,000  Level Denver Center
Sat 11:24:06 AM 40.4911 -109.4125 281° West 400 460 38,000  Level Denver Center
Sat 11:24:42 AM 40.5019 -109.4833 281° West 403 464 38,000  Level Salt Lake Center
Sat 11:25:43 AM 40.5139 -109.6469 276° West 402 463 38,000  Level Salt Lake Center
Sat 11:26:45 AM 40.5178 -109.7886 272° West 404 465 38,000  Level Salt Lake Center
Sat 11:27:47 AM 40.5236 -109.9525 273° West 404 465 38,000  Level Salt Lake Center
Sat 11:28:48 AM 40.5294 -110.0933 273° West 404 465 38,000  Level Salt Lake Center
Sat 11:29:50 AM 40.5333 -110.2347 272° West 405 466 38,000  Level Salt Lake Center
Sat 11:30:51 AM 40.5414 -110.4003 274° West 406 467 38,000  Level Salt Lake Center
Sat 11:31:53 AM 40.5444 -110.5428 272° West 408 470 38,000  Level Salt Lake Center
Sat 11:32:54 AM 40.5506 -110.6975 273° West 410 472 38,000  Level Salt Lake Center
Sat 11:33:56 AM 40.5550 -110.8464 272° West 409 471 38,000  Level Salt Lake Center
Sat 11:34:58 AM 40.5594 -110.9944 272° West 407 468 38,000  Level Salt Lake Center
Sat 11:35:59 AM 40.5642 -111.1714 272° West 404 465 38,000  Level Salt Lake Center
Sat 11:37:01 AM 40.5678 -111.3203 272° West 407 468 38,000  Level Salt Lake Center
Sat 11:38:03 AM 40.5717 -111.4678 272° West 404 465 38,000  Level Salt Lake Center
Sat 11:39:05 AM 40.5753 -111.6164 272° West 405 466 38,000  Level Salt Lake Center
Sat 11:40:06 AM 40.5778 -111.7647 271° West 405 466 38,000  Level Salt Lake Center
Sat 11:41:07 AM 40.5806 -111.9128 271° West 402 463 38,000  Level Salt Lake Center
Sat 11:42:09 AM 40.5836 -112.0556 272° West 389 448 38,000  Level Salt Lake Center
Sat 11:43:11 AM 40.5861 -112.1981 271° West 389 448 38,000  Level Salt Lake Center
Sat 11:44:12 AM 40.5878 -112.3397 271° West 386 444 38,000  Level Salt Lake Center
Sat 11:45:14 AM 40.5903 -112.4817 271° West 387 445 38,000  Level Salt Lake Center
Sat 11:46:15 AM 40.5931 -112.6519 271° West 388 447 38,000  Level Salt Lake Center
Sat 11:47:17 AM 40.5939 -112.7958 270° West 393 452 38,000  Level Salt Lake Center
Sat 11:48:19 AM 40.5967 -112.9411 271° West 397 457 38,000  Level Salt Lake Center
Sat 11:49:20 AM 40.5981 -113.0839 271° West 391 450 38,000  Level Salt Lake Center
Sat 11:50:22 AM 40.6000 -113.2244 271° West 385 443 38,000  Level Salt Lake Center
Sat 11:51:23 AM 40.6014 -113.3619 271° West 380 437 38,000  Level Salt Lake Center
Sat 11:52:25 AM 40.5994 -113.4997 269° West 379 436 38,000  Level Salt Lake Center
Sat 11:53:26 AM 40.6008 -113.6383 271° West 379 436 38,000  Level Salt Lake Center
Sat 11:54:28 AM 40.6017 -113.8069 270° West 384 442 38,000  Level Salt Lake Center
Sat 11:55:29 AM 40.6014 -113.9472 270° West 385 443 38,000  Level Salt Lake Center
Sat 11:56:31 AM 40.6019 -114.0883 270° West 386 444 38,000  Level Salt Lake Center
Sat 11:57:32 AM 40.6019 -114.2244 270° West 375 432 38,000  Level Salt Lake Center
Sat 11:58:34 AM 40.6014 -114.3589 270° West 368 423 38,000  Level Salt Lake Center
Sat 11:59:35 AM 40.6014 -114.4933 270° West 368 423 38,000  Level Salt Lake Center
Sat 12:00:37 PM 40.6014 -114.6283 270° West 369 425 38,000  Level Salt Lake Center
Sat 12:01:38 PM 40.6031 -114.7647 271° West 373 429 38,000  Level Salt Lake Center
Sat 12:02:40 PM 40.6000 -114.9167 269° West 374 430 38,000  Level Salt Lake Center
Sat 12:03:41 PM 40.5989 -115.0478 269° West 375 432 38,000  Level Salt Lake Center
Sat 12:04:43 PM 40.5942 -115.2003 268° West 374 430 38,000  Level Salt Lake Center
Sat 12:05:44 PM 40.5931 -115.3331 269° West 377 434 38,000  Level Salt Lake Center
Sat 12:06:46 PM 40.5917 -115.4847 269° West 374 430 38,000  Level Salt Lake Center
Sat 12:07:47 PM 40.5897 -115.6181 269° West 378 435 38,000  Level Salt Lake Center
Sat 12:08:49 PM 40.5883 -115.7508 269° West 380 437 38,000  Level Salt Lake Center
Sat 12:09:50 PM 40.5867 -115.9036 269° West 375 432 38,000  Level Salt Lake Center
Sat 12:10:52 PM 40.5856 -116.0311 269° West 368 423 38,000  Level Salt Lake Center
Sat 12:11:53 PM 40.5828 -116.1786 269° West 363 418 38,000  Level Salt Lake Center
Sat 12:12:55 PM 40.5811 -116.3078 269° West 369 425 38,000  Level Salt Lake Center
Sat 12:13:56 PM 40.5786 -116.4575 269° West 368 423 38,000  Level Salt Lake Center
Sat 12:14:58 PM 40.5758 -116.5869 268° West 371 427 38,000  Level Salt Lake Center
Sat 12:15:59 PM 40.5742 -116.7133 269° West 366 421 38,000  Level Salt Lake Center
Sat 12:17:01 PM 40.5700 -116.8608 268° West 365 420 38,000  Level Salt Lake Center
Sat 12:18:02 PM 40.5519 -116.9853 259° West 373 429 38,000  Level Salt Lake Center
Sat 12:19:04 PM 40.5150 -117.1317 252° West 381 438 38,000  Level Salt Lake Center
Sat 12:20:05 PM 40.4817 -117.2567 251° West 382 440 38,000  Level Salt Lake Center
Sat 12:21:07 PM 40.4425 -117.4028 251° West 381 438 38,000  Level Salt Lake Center
Sat 12:22:09 PM 40.4097 -117.5269 251° West 379 436 38,000  Level Salt Lake Center
Sat 12:23:02 PM 40.3772 -117.6508 251° West 376 433 38,000  Level Oakland Center
Sat 12:24:12 PM 40.3372 -117.7939 250° West 374 430 38,000  Level Salt Lake Center
Sat 12:25:04 PM 40.3053 -117.9192 252° West 378 435 38,000  Level Oakland Center
Sat 12:26:05 PM 40.2739 -118.0350 250° West 376 433 38,000 -244 Level Oakland Center
Sat 12:27:07 PM 40.2381 -118.1619 250° West 374 430 37,500 -1,220 Descending Oakland Center
Sat 12:28:08 PM 40.2039 -118.2931 251° West 381 438 35,500 -2,656 Descending Oakland Center
Sat 12:29:09 PM 40.1606 -118.4486 250° West 381 438 32,100 -2,852 Descending Oakland Center
Sat 12:30:10 PM 40.1233 -118.5786 250° West 382 440 29,700 -2,195 Descending Oakland Center
Sat 12:31:12 PM 40.0992 -118.7075 256° West 368 423 27,600 -2,829 Descending Oakland Center
Sat 12:32:13 PM 40.0656 -118.8369 251° West 374 430 23,900 -3,295 Descending Oakland Center
Sat 12:33:14 PM 40.0311 -118.9692 251° West 385 443 20,900 -2,607 Descending Oakland Center
Sat 12:34:15 PM 39.9997 -119.0975 252° West 377 434 18,600 -2,213 Descending Oakland Center
Sat 12:35:16 PM 39.9669 -119.2217 251° West 367 422 16,400 -2,195 Descending Oakland Center
Sat 12:36:18 PM 39.9358 -119.3417 251° West 355 409 14,100 -2,195 Descending Oakland Center
Sat 12:37:19 PM 39.9044 -119.4608 251° West 350 403 11,900 -1,672 Descending Oakland Center
Sat 12:38:20 PM 39.8664 -119.6006 251° West 338 389 10,700 -885 Descending Oakland Center
Sat 12:39:21 PM 39.8072 -119.6658 220° Southwest 288 331 10,100 -738 Descending Oakland Center
Sat 12:40:22 PM 39.7478 -119.7225 216° Southwest 270 311 9,200 -1,073 Descending Oakland Center
Sat 12:41:24 PM 39.6925 -119.7669 212° Southwest 264 304 7,900 -1,218 Descending Oakland Center
Sat 12:42:35 PM 39.6167 -119.7667 180° South 185 213 6,500 -962 Descending Northern Cal TRACON
Sat 12:43:35 PM 39.5833 -119.7667 180° South 148 170 5,800 -750 Descending Northern Cal TRACON
Sat 12:44:35 PM 39.5333 -119.7667 180° South 152 175 5,000 -800 Descending Northern Cal TRACON
Sat 12:46:00 PM 39.4991 -119.7681 201° Southwest  Level Estimated
Sat 12:53:00 PM 39.4991 -119.7681 201° Southwest  Level Estimated

Login

Don't have an account? Register now (free) for customized features, flight alerts, and more!